Tokomaru Bay — 9V3461 — position and weather

sailwx.info

Track history (hours):
 
Tides and Currents Weather Stations Pressure Air Temp Water Temp Dewpoint Dewpoint Depression Visibility Wind Speed Wind Dir Waves Ship Positions

Tokomaru Bay

Last reported at 2018-Jun-22 08:27 UTC. Time now 2018-Jun-23 12:23 UTC.
Position S 29°50' E 031°36'.

Length 170 m; draft 9.7 m.

Type: Ship. MMSI: 563528000.

Date/timePositionNaut miles runAvg speedWind from/ knotsBaromVisibWave heightAir tempDewpointWater temp
2018-Jun-22 08:27S 29°50' E 031°36'9 9.7
2018-Jun-22 07:30S 29°49' E 031°25'611.4
2018-Jun-22 07:00S 29°49' E 031°19'611.9
2018-Jun-22 06:30S 29°50' E 031°12'611.6
2018-Jun-22 06:00S 29°51' E 031°05'3 1.5
2018-Jun-22 03:50S 29°52' E 031°02'0 0.0
2018-Jun-22 03:26S 29°52' E 031°02'0 0.0
2018-Jun-21 21:08S 29°52' E 031°02'0 0.0
2018-Jun-21 20:56S 29°52' E 031°02'0 0.0
2018-Jun-21 20:26S 29°52' E 031°02'0 0.0
2018-Jun-21 19:56S 29°52' E 031°02'0 0.0
2018-Jun-21 19:20S 29°52' E 031°02'0 0.0
2018-Jun-21 18:56S 29°52' E 031°02'0 0.0
2018-Jun-21 18:26S 29°52' E 031°02'0 0.0
2018-Jun-21 17:56S 29°52' E 031°02'0 0.0
2018-Jun-21 17:20S 29°52' E 031°02'0 0.0
2018-Jun-21 16:56S 29°52' E 031°02'0 0.0
2018-Jun-21 16:26S 29°52' E 031°02'0 0.0
2018-Jun-21 15:56S 29°52' E 031°02'0 0.0
2018-Jun-21 15:20S 29°52' E 031°02'0 0.0
2018-Jun-21 14:56S 29°52' E 031°02'0 0.0
2018-Jun-21 14:30S 29°52' E 031°02'2 3.5
2018-Jun-21 14:01S 29°52' E 031°04'3 6.5
2018-Jun-21 13:30S 29°49' E 031°05'0 0.9
2018-Jun-21 13:00S 29°48' E 031°06'4 8.3
2018-Jun-21 12:31S 29°52' E 031°08'5 9.9
2018-Jun-21 12:00S 29°54' E 031°13'510.3
2018-Jun-21 11:30S 29°59' E 031°15'611.3
2018-Jun-21 11:00S 30°04' E 031°15'611.7
2018-Jun-21 10:30S 30°10' E 031°12'  
Track history (hours):
 
Tides and Currents Weather Stations Pressure Air Temp Water Temp Dewpoint Dewpoint Depression Visibility Wind Speed Wind Dir Waves Ship Positions

Tokomaru Bay

Last reported at 2018-Jun-22 08:27 UTC. Time now 2018-Jun-23 12:23 UTC.
Position S 29°50' E 031°36'.

Length 170 m; draft 9.7 m.

Type: Ship. MMSI: 563528000.

Date/timePositionNaut miles runAvg speedWind from/ knotsBaromVisibWave heightAir tempDewpointWater temp
2018-Jun-22 08:27S 29°50' E 031°36'9 9.7
2018-Jun-22 07:30S 29°49' E 031°25'611.4
2018-Jun-22 07:00S 29°49' E 031°19'611.9
2018-Jun-22 06:30S 29°50' E 031°12'611.6
2018-Jun-22 06:00S 29°51' E 031°05'3 1.5
2018-Jun-22 03:50S 29°52' E 031°02'0 0.0
2018-Jun-22 03:26S 29°52' E 031°02'0 0.0
2018-Jun-21 21:08S 29°52' E 031°02'0 0.0
2018-Jun-21 20:56S 29°52' E 031°02'0 0.0
2018-Jun-21 20:26S 29°52' E 031°02'0 0.0
2018-Jun-21 19:56S 29°52' E 031°02'0 0.0
2018-Jun-21 19:20S 29°52' E 031°02'0 0.0
2018-Jun-21 18:56S 29°52' E 031°02'0 0.0
2018-Jun-21 18:26S 29°52' E 031°02'0 0.0
2018-Jun-21 17:56S 29°52' E 031°02'0 0.0
2018-Jun-21 17:20S 29°52' E 031°02'0 0.0
2018-Jun-21 16:56S 29°52' E 031°02'0 0.0
2018-Jun-21 16:26S 29°52' E 031°02'0 0.0
2018-Jun-21 15:56S 29°52' E 031°02'0 0.0
2018-Jun-21 15:20S 29°52' E 031°02'0 0.0
2018-Jun-21 14:56S 29°52' E 031°02'0 0.0
2018-Jun-21 14:30S 29°52' E 031°02'2 3.5
2018-Jun-21 14:01S 29°52' E 031°04'3 6.5
2018-Jun-21 13:30S 29°49' E 031°05'0 0.9
2018-Jun-21 13:00S 29°48' E 031°06'4 8.3
2018-Jun-21 12:31S 29°52' E 031°08'5 9.9
2018-Jun-21 12:00S 29°54' E 031°13'510.3
2018-Jun-21 11:30S 29°59' E 031°15'611.3
2018-Jun-21 11:00S 30°04' E 031°15'611.7
2018-Jun-21 10:30S 30°10' E 031°12'  

Dump ship's entire track history